sensor_id;sensor_type;location;lat;lon;timestamp;pressure;altitude;pressure_sealevel;temperature;humidity
77360;BME280;66426;51.454;7.266;2023-07-29T00:00:42;99351.03;;;18.19;nan
77360;BME280;66426;51.454;7.266;2023-07-29T00:01:43;99345.56;;;18.19;nan
77360;BME280;66426;51.454;7.266;2023-07-29T00:02:44;99346.41;;;18.19;nan
77360;BME280;66426;51.454;7.266;2023-07-29T00:03:45;99350.03;;;18.20;nan
77360;BME280;66426;51.454;7.266;2023-07-29T00:04:45;99348.00;;;18.22;nan
77360;BME280;66426;51.454;7.266;2023-07-29T00:05:47;99351.75;;;18.21;nan
77360;BME280;66426;51.454;7.266;2023-07-29T00:06:48;99356.03;;;18.23;nan
77360;BME280;66426;51.454;7.266;2023-07-29T00:07:48;99352.59;;;18.21;nan
77360;BME280;66426;51.454;7.266;2023-07-29T00:08:49;99347.31;;;18.20;nan
77360;BME280;66426;51.454;7.266;2023-07-29T00:09:50;99348.16;;;18.20;nan
77360;BME280;66426;51.454;7.266;2023-07-29T00:10:51;99347.16;;;18.11;nan
77360;BME280;66426;51.454;7.266;2023-07-29T00:11:52;99349.75;;;18.13;nan
77360;BME280;66426;51.454;7.266;2023-07-29T00:12:53;99344.00;;;18.16;nan
77360;BME280;66426;51.454;7.266;2023-07-29T00:13:55;99346.72;;;18.16;nan
77360;BME280;66426;51.454;7.266;2023-07-29T00:14:56;99344.00;;;18.16;nan
77360;BME280;66426;51.454;7.266;2023-07-29T00:15:57;99346.72;;;18.16;nan
77360;BME280;66426;51.454;7.266;2023-07-29T00:16:58;99354.78;;;18.18;nan
77360;BME280;66426;51.454;7.266;2023-07-29T00:18:00;99344.72;;;18.18;nan
77360;BME280;66426;51.454;7.266;2023-07-29T00:19:02;99346.41;;;18.19;nan
77360;BME280;66426;51.454;7.266;2023-07-29T00:20:03;99344.84;;;18.17;nan
77360;BME280;66426;51.454;7.266;2023-07-29T00:21:04;99346.59;;;18.18;nan
77360;BME280;66426;51.454;7.266;2023-07-29T00:22:05;99341.84;;;18.20;nan
77360;BME280;66426;51.454;7.266;2023-07-29T00:23:06;99337.56;;;18.17;nan
77360;BME280;66426;51.454;7.266;2023-07-29T00:24:07;99340.28;;;18.17;nan
77360;BME280;66426;51.454;7.266;2023-07-29T00:25:07;99333.69;;;18.10;nan
77360;BME280;66426;51.454;7.266;2023-07-29T00:26:08;99331.22;;;18.07;nan
77360;BME280;66426;51.454;7.266;2023-07-29T00:27:09;99334.69;;;18.09;nan
77360;BME280;66426;51.454;7.266;2023-07-29T00:28:11;99343.03;;;18.07;nan
77360;BME280;66426;51.454;7.266;2023-07-29T00:29:13;99331.09;;;18.08;nan
77360;BME280;66426;51.454;7.266;2023-07-29T00:30:14;99330.38;;;18.06;nan
77360;BME280;66426;51.454;7.266;2023-07-29T00:31:15;99332.13;;;17.98;nan
77360;BME280;66426;51.454;7.266;2023-07-29T00:32:16;99320.94;;;18.01;nan
77360;BME280;66426;51.454;7.266;2023-07-29T00:33:17;99325.38;;;18.02;nan
77360;BME280;66426;51.454;7.266;2023-07-29T00:34:17;99323.22;;;18.05;nan
77360;BME280;66426;51.454;7.266;2023-07-29T00:35:20;99328.69;;;18.05;nan
77360;BME280;66426;51.454;7.266;2023-07-29T00:36:21;99327.09;;;18.03;nan
77360;BME280;66426;51.454;7.266;2023-07-29T00:37:22;99326.94;;;18.04;nan
77360;BME280;66426;51.454;7.266;2023-07-29T00:38:23;99333.41;;;18.03;nan
77360;BME280;66426;51.454;7.266;2023-07-29T00:39:23;99328.69;;;18.05;nan
77360;BME280;66426;51.454;7.266;2023-07-29T00:40:25;99317.78;;;18.05;nan
77360;BME280;66426;51.454;7.266;2023-07-29T00:41:28;99316.91;;;18.05;nan
77360;BME280;66426;51.454;7.266;2023-07-29T00:42:29;99314.75;;;18.08;nan
77360;BME280;66426;51.454;7.266;2023-07-29T00:43:30;99322.91;;;18.08;nan
77360;BME280;66426;51.454;7.266;2023-07-29T00:44:32;99324.38;;;18.03;nan
77360;BME280;66426;51.454;7.266;2023-07-29T00:45:33;99320.06;;;18.00;nan
77360;BME280;66426;51.454;7.266;2023-07-29T00:46:34;99318.75;;;18.04;nan
77360;BME280;66426;51.454;7.266;2023-07-29T00:47:36;99319.19;;;18.09;nan
77360;BME280;66426;51.454;7.266;2023-07-29T00:48:38;99314.31;;;18.03;nan
77360;BME280;66426;51.454;7.266;2023-07-29T00:49:39;99314.75;;;18.08;nan
77360;BME280;66426;51.454;7.266;2023-07-29T00:50:40;99315.75;;;18.07;nan
77360;BME280;66426;51.454;7.266;2023-07-29T00:51:41;99321.91;;;18.09;nan
77360;BME280;66426;51.454;7.266;2023-07-29T00:52:42;99313.88;;;18.08;nan
77360;BME280;66426;51.454;7.266;2023-07-29T00:53:42;99315.91;;;18.06;nan
77360;BME280;66426;51.454;7.266;2023-07-29T00:54:44;99312.88;;;17.99;nan
77360;BME280;66426;51.454;7.266;2023-07-29T00:55:45;99320.50;;;18.05;nan
77360;BME280;66426;51.454;7.266;2023-07-29T00:56:46;99319.34;;;18.08;nan
77360;BME280;66426;51.454;7.266;2023-07-29T00:57:47;99314.19;;;18.05;nan
77360;BME280;66426;51.454;7.266;2023-07-29T00:58:49;99313.19;;;18.06;nan
77360;BME280;66426;51.454;7.266;2023-07-29T00:59:53;99314.63;;;18.10;nan
77360;BME280;66426;51.454;7.266;2023-07-29T01:00:54;99308.56;;;18.06;nan
77360;BME280;66426;51.454;7.266;2023-07-29T01:01:55;99309.59;;;18.05;nan
77360;BME280;66426;51.454;7.266;2023-07-29T01:02:56;99314.03;;;18.06;nan
77360;BME280;66426;51.454;7.266;2023-07-29T01:03:57;99311.59;;;18.03;nan
77360;BME280;66426;51.454;7.266;2023-07-29T01:04:58;99314.47;;;18.02;nan
77360;BME280;66426;51.454;7.266;2023-07-29T01:06:04;99309.72;;;18.04;nan
77360;BME280;66426;51.454;7.266;2023-07-29T01:07:11;99307.72;;;18.06;nan
77360;BME280;66426;51.454;7.266;2023-07-29T01:08:18;99313.59;;;18.01;nan
77360;BME280;66426;51.454;7.266;2023-07-29T01:09:25;99304.88;;;17.98;nan
77360;BME280;66426;51.454;7.266;2023-07-29T01:10:30;99301.72;;;18.02;nan
77360;BME280;66426;51.454;7.266;2023-07-29T01:11:35;99300.69;;;18.03;nan
77360;BME280;66426;51.454;7.266;2023-07-29T01:12:40;99301.84;;;18.01;nan
77360;BME280;66426;51.454;7.266;2023-07-29T01:13:44;99294.41;;;18.03;nan
77360;BME280;66426;51.454;7.266;2023-07-29T01:14:47;99301.00;;;18.00;nan
77360;BME280;66426;51.454;7.266;2023-07-29T01:15:52;99301.97;;;17.99;nan
77360;BME280;66426;51.454;7.266;2023-07-29T01:16:55;99301.00;;;18.00;nan
77360;BME280;66426;51.454;7.266;2023-07-29T01:17:59;99301.97;;;17.99;nan
77360;BME280;66426;51.454;7.266;2023-07-29T01:19:04;99286.66;;;17.98;nan
77360;BME280;66426;51.454;7.266;2023-07-29T01:20:07;99295.84;;;17.97;nan
77360;BME280;66426;51.454;7.266;2023-07-29T01:21:09;99290.66;;;17.94;nan
77360;BME280;66426;51.454;7.266;2023-07-29T01:22:11;99294.28;;;17.95;nan
77360;BME280;66426;51.454;7.266;2023-07-29T01:23:12;99291.56;;;17.95;nan
77360;BME280;66426;51.454;7.266;2023-07-29T01:24:15;99296.13;;;17.94;nan
77360;BME280;66426;51.454;7.266;2023-07-29T01:25:15;99301.72;;;17.93;nan
77360;BME280;66426;51.454;7.266;2023-07-29T01:26:16;99295.56;;;17.91;nan
77360;BME280;66426;51.454;7.266;2023-07-29T01:27:17;99296.53;;;17.89;nan
77360;BME280;66426;51.454;7.266;2023-07-29T01:28:18;99299.13;;;17.91;nan
77360;BME280;66426;51.454;7.266;2023-07-29T01:29:19;99299.44;;;17.88;nan
77360;BME280;66426;51.454;7.266;2023-07-29T01:30:20;99301.16;;;17.89;nan
77360;BME280;66426;51.454;7.266;2023-07-29T01:31:23;99298.41;;;17.89;nan
77360;BME280;66426;51.454;7.266;2023-07-29T01:32:28;99292.97;;;17.89;nan
77360;BME280;66426;51.454;7.266;2023-07-29T01:33:30;99291.69;;;17.93;nan
77360;BME280;66426;51.454;7.266;2023-07-29T01:34:35;99294.41;;;17.93;nan
77360;BME280;66426;51.454;7.266;2023-07-29T01:35:40;99290.09;;;17.91;nan
77360;BME280;66426;51.454;7.266;2023-07-29T01:36:43;99285.66;;;17.89;nan
77360;BME280;66426;51.454;7.266;2023-07-29T01:37:47;99289.25;;;17.90;nan
77360;BME280;66426;51.454;7.266;2023-07-29T01:38:49;99288.25;;;17.91;nan
77360;BME280;66426;51.454;7.266;2023-07-29T01:39:52;99290.41;;;17.87;nan
77360;BME280;66426;51.454;7.266;2023-07-29T01:40:55;99290.84;;;17.83;nan
77360;BME280;66426;51.454;7.266;2023-07-29T01:41:56;99290.84;;;17.83;nan
77360;BME280;66426;51.454;7.266;2023-07-29T01:42:58;99293.56;;;17.83;nan
77360;BME280;66426;51.454;7.266;2023-07-29T01:43:59;99286.25;;;17.83;nan
77360;BME280;66426;51.454;7.266;2023-07-29T01:45:00;99279.66;;;17.86;nan
77360;BME280;66426;51.454;7.266;2023-07-29T01:46:01;99286.09;;;17.85;nan
77360;BME280;66426;51.454;7.266;2023-07-29T01:47:02;99281.50;;;17.85;nan
77360;BME280;66426;51.454;7.266;2023-07-29T01:48:03;99280.34;;;17.78;nan
77360;BME280;66426;51.454;7.266;2023-07-29T01:49:04;99279.09;;;17.82;nan
77360;BME280;66426;51.454;7.266;2023-07-29T01:50:05;99277.34;;;17.81;nan
77360;BME280;66426;51.454;7.266;2023-07-29T01:51:06;99274.50;;;17.83;nan
77360;BME280;66426;51.454;7.266;2023-07-29T01:52:07;99269.91;;;17.83;nan
77360;BME280;66426;51.454;7.266;2023-07-29T01:53:08;99274.63;;;17.81;nan
77360;BME280;66426;51.454;7.266;2023-07-29T01:54:09;99271.91;;;17.81;nan
77360;BME280;66426;51.454;7.266;2023-07-29T01:55:11;99278.06;;;17.83;nan
77360;BME280;66426;51.454;7.266;2023-07-29T01:56:12;99274.31;;;17.84;nan
77360;BME280;66426;51.454;7.266;2023-07-29T01:57:13;99275.66;;;17.80;nan
77360;BME280;66426;51.454;7.266;2023-07-29T01:58:14;99282.81;;;17.81;nan
77360;BME280;66426;51.454;7.266;2023-07-29T01:59:15;99279.94;;;17.83;nan
77360;BME280;66426;51.454;7.266;2023-07-29T02:00:17;99281.66;;;17.84;nan
77360;BME280;66426;51.454;7.266;2023-07-29T02:01:18;99278.91;;;17.84;nan
77360;BME280;66426;51.454;7.266;2023-07-29T02:02:19;99273.47;;;17.84;nan
77360;BME280;66426;51.454;7.266;2023-07-29T02:03:20;99278.06;;;17.83;nan
77360;BME280;66426;51.454;7.266;2023-07-29T02:04:21;99277.63;;;17.78;nan
77360;BME280;66426;51.454;7.266;2023-07-29T02:05:22;99281.81;;;17.82;nan
77360;BME280;66426;51.454;7.266;2023-07-29T02:06:23;99284.25;;;17.85;nan
77360;BME280;66426;51.454;7.266;2023-07-29T02:07:24;99279.78;;;17.84;nan
77360;BME280;66426;51.454;7.266;2023-07-29T02:08:27;99279.94;;;17.83;nan
77360;BME280;66426;51.454;7.266;2023-07-29T02:09:28;99280.50;;;17.86;nan
77360;BME280;66426;51.454;7.266;2023-07-29T02:10:31;99273.47;;;17.84;nan
77360;BME280;66426;51.454;7.266;2023-07-29T02:11:32;99284.25;;;17.85;nan
77360;BME280;66426;51.454;7.266;2023-07-29T02:12:33;99273.75;;;17.91;nan
77360;BME280;66426;51.454;7.266;2023-07-29T02:13:34;99277.19;;;17.93;nan
77360;BME280;66426;51.454;7.266;2023-07-29T02:14:35;99275.47;;;17.82;nan
77360;BME280;66426;51.454;7.266;2023-07-29T02:15:36;99271.91;;;17.81;nan
77360;BME280;66426;51.454;7.266;2023-07-29T02:16:37;99263.16;;;17.87;nan
77360;BME280;66426;51.454;7.266;2023-07-29T02:17:40;99273.34;;;17.85;nan
77360;BME280;66426;51.454;7.266;2023-07-29T02:18:41;99268.59;;;17.87;nan
77360;BME280;66426;51.454;7.266;2023-07-29T02:19:42;99260.44;;;17.87;nan
77360;BME280;66426;51.454;7.266;2023-07-29T02:20:43;99260.97;;;17.91;nan
77360;BME280;66426;51.454;7.266;2023-07-29T02:21:49;99257.84;;;17.86;nan
77360;BME280;66426;51.454;7.266;2023-07-29T02:22:50;99257.13;;;17.84;nan
77360;BME280;66426;51.454;7.266;2023-07-29T02:23:51;99263.88;;;17.80;nan
77360;BME280;66426;51.454;7.266;2023-07-29T02:24:52;99255.94;;;17.77;nan
77360;BME280;66426;51.454;7.266;2023-07-29T02:25:54;99253.00;;;17.80;nan
77360;BME280;66426;51.454;7.266;2023-07-29T02:26:55;99250.94;;;17.82;nan
77360;BME280;66426;51.454;7.266;2023-07-29T02:27:56;99251.13;;;17.80;nan
77360;BME280;66426;51.454;7.266;2023-07-29T02:28:57;99252.06;;;17.79;nan
77360;BME280;66426;51.454;7.266;2023-07-29T02:29:58;99249.13;;;17.82;nan
77360;BME280;66426;51.454;7.266;2023-07-29T02:32:14;99242.66;;;17.83;nan
77360;BME280;66426;51.454;7.266;2023-07-29T02:33:15;99237.59;;;17.79;nan
77360;BME280;66426;51.454;7.266;2023-07-29T02:34:16;99239.19;;;17.81;nan
77360;BME280;66426;51.454;7.266;2023-07-29T02:35:17;99241.78;;;17.83;nan
77360;BME280;66426;51.454;7.266;2023-07-29T02:36:18;99235.31;;;17.84;nan
77360;BME280;66426;51.454;7.266;2023-07-29T02:37:19;99235.19;;;17.85;nan
77360;BME280;66426;51.454;7.266;2023-07-29T02:38:20;99236.34;;;17.83;nan
77360;BME280;66426;51.454;7.266;2023-07-29T02:39:21;99239.91;;;17.83;nan
77360;BME280;66426;51.454;7.266;2023-07-29T02:40:22;99235.19;;;17.85;nan
77360;BME280;66426;51.454;7.266;2023-07-29T02:41:25;99228.72;;;17.86;nan
77360;BME280;66426;51.454;7.266;2023-07-29T02:42:25;99227.31;;;17.82;nan
77360;BME280;66426;51.454;7.266;2023-07-29T02:43:26;99223.72;;;17.82;nan
77360;BME280;66426;51.454;7.266;2023-07-29T02:44:27;99222.72;;;17.83;nan
77360;BME280;66426;51.454;7.266;2023-07-29T02:45:28;99230.03;;;17.82;nan
77360;BME280;66426;51.454;7.266;2023-07-29T02:46:29;99234.88;;;17.88;nan
77360;BME280;66426;51.454;7.266;2023-07-29T02:47:30;99233.19;;;17.87;nan
77360;BME280;66426;51.454;7.266;2023-07-29T02:48:31;99227.88;;;17.86;nan
77360;BME280;66426;51.454;7.266;2023-07-29T02:49:32;99232.78;;;17.82;nan
77360;BME280;66426;51.454;7.266;2023-07-29T02:50:34;99229.03;;;17.83;nan
77360;BME280;66426;51.454;7.266;2023-07-29T02:51:35;99234.03;;;17.78;nan
77360;BME280;66426;51.454;7.266;2023-07-29T02:52:36;99236.03;;;17.76;nan
77360;BME280;66426;51.454;7.266;2023-07-29T02:53:37;99238.19;;;17.73;nan
77360;BME280;66426;51.454;7.266;2023-07-29T02:54:38;99230.28;;;17.69;nan
77360;BME280;66426;51.454;7.266;2023-07-29T02:55:39;99236.19;;;17.75;nan
77360;BME280;66426;51.454;7.266;2023-07-29T02:56:41;99241.34;;;17.78;nan
77360;BME280;66426;51.454;7.266;2023-07-29T02:57:42;99240.31;;;17.79;nan
77360;BME280;66426;51.454;7.266;2023-07-29T02:58:43;99254.81;;;17.69;nan
77360;BME280;66426;51.454;7.266;2023-07-29T02:59:45;99254.69;;;17.71;nan
77360;BME280;66426;51.454;7.266;2023-07-29T03:00:46;99250.09;;;17.72;nan
77360;BME280;66426;51.454;7.266;2023-07-29T03:01:48;99252.66;;;17.73;nan
77360;BME280;66426;51.454;7.266;2023-07-29T03:02:49;99249.94;;;17.73;nan
77360;BME280;66426;51.454;7.266;2023-07-29T03:03:50;99252.66;;;17.73;nan
77360;BME280;66426;51.454;7.266;2023-07-29T03:04:51;99248.78;;;17.76;nan
77360;BME280;66426;51.454;7.266;2023-07-29T03:05:56;99250.38;;;17.78;nan
77360;BME280;66426;51.454;7.266;2023-07-29T03:06:57;99250.81;;;17.74;nan
77360;BME280;66426;51.454;7.266;2023-07-29T03:08:00;99247.78;;;17.77;nan
77360;BME280;66426;51.454;7.266;2023-07-29T03:09:01;99251.13;;;17.80;nan
77360;BME280;66426;51.454;7.266;2023-07-29T03:10:02;99251.84;;;17.82;nan
77360;BME280;66426;51.454;7.266;2023-07-29T03:11:05;99252.25;;;17.78;nan
77360;BME280;66426;51.454;7.266;2023-07-29T03:12:07;99259.81;;;17.74;nan
77360;BME280;66426;51.454;7.266;2023-07-29T03:13:08;99255.53;;;17.72;nan
77360;BME280;66426;51.454;7.266;2023-07-29T03:14:09;99254.69;;;17.71;nan
77360;BME280;66426;51.454;7.266;2023-07-29T03:15:10;99243.47;;;17.74;nan
77360;BME280;66426;51.454;7.266;2023-07-29T03:16:11;99249.66;;;17.76;nan
77360;BME280;66426;51.454;7.266;2023-07-29T03:17:12;99248.78;;;17.76;nan
77360;BME280;66426;51.454;7.266;2023-07-29T03:18:13;99252.38;;;17.76;nan
77360;BME280;66426;51.454;7.266;2023-07-29T03:19:14;99252.81;;;17.72;nan
77360;BME280;66426;51.454;7.266;2023-07-29T03:20:15;99260.56;;;17.76;nan
77360;BME280;66426;51.454;7.266;2023-07-29T03:21:18;99248.50;;;17.79;nan
77360;BME280;66426;51.454;7.266;2023-07-29T03:22:19;99258.53;;;17.78;nan
77360;BME280;66426;51.454;7.266;2023-07-29T03:23:20;99261.59;;;17.85;nan
77360;BME280;66426;51.454;7.266;2023-07-29T03:24:20;99262.13;;;17.88;nan
77360;BME280;66426;51.454;7.266;2023-07-29T03:25:21;99260.44;;;17.87;nan
77360;BME280;66426;51.454;7.266;2023-07-29T03:26:22;99259.28;;;17.90;nan
77360;BME280;66426;51.454;7.266;2023-07-29T03:27:24;99257.41;;;17.91;nan
77360;BME280;66426;51.454;7.266;2023-07-29T03:28:26;99256.69;;;17.88;nan
77360;BME280;66426;51.454;7.266;2023-07-29T03:29:28;99257.00;;;17.85;nan
77360;BME280;66426;51.454;7.266;2023-07-29T03:30:28;99254.09;;;17.87;nan
77360;BME280;66426;51.454;7.266;2023-07-29T03:31:29;99253.97;;;17.88;nan
77360;BME280;66426;51.454;7.266;2023-07-29T03:32:30;99255.66;;;17.89;nan
77360;BME280;66426;51.454;7.266;2023-07-29T03:33:31;99253.81;;;17.90;nan
77360;BME280;66426;51.454;7.266;2023-07-29T03:34:32;99252.50;;;17.94;nan
77360;BME280;66426;51.454;7.266;2023-07-29T03:35:33;99255.84;;;17.88;nan
77360;BME280;66426;51.454;7.266;2023-07-29T03:36:34;99253.94;;;17.79;nan
77360;BME280;66426;51.454;7.266;2023-07-29T03:37:35;99256.28;;;17.83;nan
77360;BME280;66426;51.454;7.266;2023-07-29T03:38:36;99263.16;;;17.87;nan
77360;BME280;66426;51.454;7.266;2023-07-29T03:39:40;99254.81;;;17.89;nan
77360;BME280;66426;51.454;7.266;2023-07-29T03:40:41;99256.38;;;17.92;nan
77360;BME280;66426;51.454;7.266;2023-07-29T03:41:42;99256.38;;;17.92;nan
77360;BME280;66426;51.454;7.266;2023-07-29T03:42:44;99255.25;;;17.94;nan
77360;BME280;66426;51.454;7.266;2023-07-29T03:43:45;99250.94;;;17.92;nan
77360;BME280;66426;51.454;7.266;2023-07-29T03:44:46;99250.66;;;17.95;nan
77360;BME280;66426;51.454;7.266;2023-07-29T03:45:47;99249.78;;;17.94;nan
77360;BME280;66426;51.454;7.266;2023-07-29T03:46:48;99246.63;;;17.89;nan
77360;BME280;66426;51.454;7.266;2023-07-29T03:47:49;99244.63;;;17.91;nan
77360;BME280;66426;51.454;7.266;2023-07-29T03:48:50;99244.78;;;17.89;nan
77360;BME280;66426;51.454;7.266;2023-07-29T03:49:50;99242.75;;;17.92;nan
77360;BME280;66426;51.454;7.266;2023-07-29T03:50:51;99238.88;;;17.94;nan
77360;BME280;66426;51.454;7.266;2023-07-29T03:51:52;99240.34;;;17.88;nan
77360;BME280;66426;51.454;7.266;2023-07-29T03:52:53;99235.44;;;17.92;nan
77360;BME280;66426;51.454;7.266;2023-07-29T03:53:54;99242.22;;;17.88;nan
77360;BME280;66426;51.454;7.266;2023-07-29T03:54:55;99236.47;;;17.91;nan
77360;BME280;66426;51.454;7.266;2023-07-29T03:55:56;99235.31;;;17.94;nan
77360;BME280;66426;51.454;7.266;2023-07-29T03:56:57;99237.03;;;17.95;nan
77360;BME280;66426;51.454;7.266;2023-07-29T03:57:59;99242.50;;;17.95;nan
77360;BME280;66426;51.454;7.266;2023-07-29T03:59:04;99253.53;;;17.93;nan
77360;BME280;66426;51.454;7.266;2023-07-29T04:00:05;99246.06;;;17.95;nan
77360;BME280;66426;51.454;7.266;2023-07-29T04:01:06;99241.78;;;17.93;nan
77360;BME280;66426;51.454;7.266;2023-07-29T04:02:07;99246.22;;;17.94;nan
77360;BME280;66426;51.454;7.266;2023-07-29T04:03:08;99243.63;;;17.92;nan
77360;BME280;66426;51.454;7.266;2023-07-29T04:04:09;99238.03;;;17.94;nan
77360;BME280;66426;51.454;7.266;2023-07-29T04:05:10;99240.50;;;17.77;nan
77360;BME280;66426;51.454;7.266;2023-07-29T04:06:11;99239.19;;;17.81;nan
77360;BME280;66426;51.454;7.266;2023-07-29T04:07:12;99231.63;;;17.85;nan
77360;BME280;66426;51.454;7.266;2023-07-29T04:08:12;99231.44;;;17.86;nan
77360;BME280;66426;51.454;7.266;2023-07-29T04:09:13;99234.03;;;17.88;nan
77360;BME280;66426;51.454;7.266;2023-07-29T04:10:14;99240.34;;;17.88;nan
77360;BME280;66426;51.454;7.266;2023-07-29T04:11:15;99242.34;;;17.86;nan
77360;BME280;66426;51.454;7.266;2023-07-29T04:12:16;99241.94;;;17.81;nan
77360;BME280;66426;51.454;7.266;2023-07-29T04:13:18;99240.31;;;17.79;nan
77360;BME280;66426;51.454;7.266;2023-07-29T04:14:19;99240.22;;;17.80;nan
77360;BME280;66426;51.454;7.266;2023-07-29T04:15:21;99231.19;;;17.80;nan
77360;BME280;66426;51.454;7.266;2023-07-29T04:16:21;99236.66;;;17.80;nan
77360;BME280;66426;51.454;7.266;2023-07-29T04:17:22;99234.31;;;17.75;nan
77360;BME280;66426;51.454;7.266;2023-07-29T04:18:23;99235.03;;;17.77;nan
77360;BME280;66426;51.454;7.266;2023-07-29T04:19:24;99231.88;;;17.82;nan
77360;BME280;66426;51.454;7.266;2023-07-29T04:20:25;99234.16;;;17.86;nan
77360;BME280;66426;51.454;7.266;2023-07-29T04:21:26;99229.56;;;17.87;nan
77360;BME280;66426;51.454;7.266;2023-07-29T04:22:27;99232.78;;;17.82;nan
77360;BME280;66426;51.454;7.266;2023-07-29T04:23:28;99224.59;;;17.82;nan
77360;BME280;66426;51.454;7.266;2023-07-29T04:24:28;99224.28;;;17.85;nan
77360;BME280;66426;51.454;7.266;2023-07-29T04:25:29;99224.13;;;17.87;nan
77360;BME280;66426;51.454;7.266;2023-07-29T04:26:30;99218.84;;;17.85;nan
77360;BME280;66426;51.454;7.266;2023-07-29T04:27:31;99225.28;;;17.84;nan
77360;BME280;66426;51.454;7.266;2023-07-29T04:28:33;99215.53;;;17.82;nan
77360;BME280;66426;51.454;7.266;2023-07-29T04:29:34;99214.25;;;17.86;nan
77360;BME280;66426;51.454;7.266;2023-07-29T04:30:38;99221.13;;;17.90;nan
77360;BME280;66426;51.454;7.266;2023-07-29T04:31:39;99229.00;;;17.93;nan
77360;BME280;66426;51.454;7.266;2023-07-29T04:32:40;99227.72;;;17.97;nan
77360;BME280;66426;51.454;7.266;2023-07-29T04:33:42;99231.00;;;18.01;nan
77360;BME280;66426;51.454;7.266;2023-07-29T04:34:43;99225.66;;;17.99;nan
77360;BME280;66426;51.454;7.266;2023-07-29T04:35:44;99233.72;;;18.01;nan
77360;BME280;66426;51.454;7.266;2023-07-29T04:36:45;99232.00;;;18.00;nan
77360;BME280;66426;51.454;7.266;2023-07-29T04:37:46;99241.34;;;17.97;nan
77360;BME280;66426;51.454;7.266;2023-07-29T04:38:48;99237.19;;;17.93;nan
77360;BME280;66426;51.454;7.266;2023-07-29T04:39:49;99242.94;;;17.90;nan
77360;BME280;66426;51.454;7.266;2023-07-29T04:40:50;99241.50;;;17.86;nan
77360;BME280;66426;51.454;7.266;2023-07-29T04:41:51;99244.09;;;17.87;nan
77360;BME280;66426;51.454;7.266;2023-07-29T04:42:52;99236.47;;;17.91;nan
77360;BME280;66426;51.454;7.266;2023-07-29T04:43:54;99246.91;;;17.96;nan
77360;BME280;66426;51.454;7.266;2023-07-29T04:44:55;99247.50;;;17.89;nan
77360;BME280;66426;51.454;7.266;2023-07-29T04:45:56;99248.78;;;17.95;nan
77360;BME280;66426;51.454;7.266;2023-07-29T04:46:57;99256.25;;;17.93;nan
77360;BME280;66426;51.454;7.266;2023-07-29T04:47:58;99254.38;;;17.94;nan
77360;BME280;66426;51.454;7.266;2023-07-29T04:48:59;99249.53;;;17.87;nan
77360;BME280;66426;51.454;7.266;2023-07-29T04:50:00;99259.97;;;17.92;nan
77360;BME280;66426;51.454;7.266;2023-07-29T04:51:01;99251.78;;;17.92;nan
77360;BME280;66426;51.454;7.266;2023-07-29T04:52:01;99256.38;;;17.92;nan
77360;BME280;66426;51.454;7.266;2023-07-29T04:53:02;99254.25;;;17.95;nan
77360;BME280;66426;51.454;7.266;2023-07-29T04:54:03;99250.66;;;17.95;nan
77360;BME280;66426;51.454;7.266;2023-07-29T04:55:05;99255.84;;;17.88;nan
77360;BME280;66426;51.454;7.266;2023-07-29T04:56:06;99254.38;;;17.94;nan
77360;BME280;66426;51.454;7.266;2023-07-29T04:57:07;99253.13;;;17.88;nan
77360;BME280;66426;51.454;7.266;2023-07-29T04:58:08;99256.69;;;17.88;nan
77360;BME280;66426;51.454;7.266;2023-07-29T04:59:10;99257.72;;;17.87;nan
77360;BME280;66426;51.454;7.266;2023-07-29T05:00:13;99258.56;;;17.88;nan
77360;BME280;66426;51.454;7.266;2023-07-29T05:01:14;99269.28;;;17.89;nan
77360;BME280;66426;51.454;7.266;2023-07-29T05:02:15;99271.91;;;17.81;nan
77360;BME280;66426;51.454;7.266;2023-07-29T05:03:16;99271.03;;;17.81;nan
77360;BME280;66426;51.454;7.266;2023-07-29T05:04:17;99271.59;;;17.84;nan
77360;BME280;66426;51.454;7.266;2023-07-29T05:05:18;99271.03;;;17.81;nan
77360;BME280;66426;51.454;7.266;2023-07-29T05:06:18;99275.03;;;17.77;nan
77360;BME280;66426;51.454;7.266;2023-07-29T05:07:20;99276.19;;;17.74;nan
77360;BME280;66426;51.454;7.266;2023-07-29T05:08:21;99280.25;;;17.80;nan
77360;BME280;66426;51.454;7.266;2023-07-29T05:09:23;99281.19;;;17.79;nan
77360;BME280;66426;51.454;7.266;2023-07-29T05:10:24;99281.09;;;17.80;nan
77360;BME280;66426;51.454;7.266;2023-07-29T05:11:25;99280.78;;;17.74;nan
77360;BME280;66426;51.454;7.266;2023-07-29T05:12:26;99279.78;;;17.75;nan
77360;BME280;66426;51.454;7.266;2023-07-29T05:13:27;99287.50;;;17.69;nan
77360;BME280;66426;51.454;7.266;2023-07-29T05:14:29;99292.25;;;17.67;nan
77360;BME280;66426;51.454;7.266;2023-07-29T05:15:30;99285.94;;;17.67;nan
77360;BME280;66426;51.454;7.266;2023-07-29T05:16:31;99284.81;;;17.60;nan
77360;BME280;66426;51.454;7.266;2023-07-29T05:17:32;99282.66;;;17.63;nan
77360;BME280;66426;51.454;7.266;2023-07-29T05:18:33;99288.09;;;17.63;nan
77360;BME280;66426;51.454;7.266;2023-07-29T05:19:33;99287.81;;;17.66;nan
77360;BME280;66426;51.454;7.266;2023-07-29T05:20:34;99279.50;;;17.68;nan
77360;BME280;66426;51.454;7.266;2023-07-29T05:21:36;99279.19;;;17.71;nan
77360;BME280;66426;51.454;7.266;2023-07-29T05:22:37;99272.16;;;17.68;nan
77360;BME280;66426;51.454;7.266;2023-07-29T05:23:38;99267.44;;;17.71;nan
77360;BME280;66426;51.454;7.266;2023-07-29T05:24:39;99264.13;;;17.67;nan
77360;BME280;66426;51.454;7.266;2023-07-29T05:25:40;99258.41;;;17.70;nan
77360;BME280;66426;51.454;7.266;2023-07-29T05:26:41;99258.41;;;17.70;nan
77360;BME280;66426;51.454;7.266;2023-07-29T05:27:42;99263.56;;;17.73;nan
77360;BME280;66426;51.454;7.266;2023-07-29T05:28:42;99261.16;;;17.70;nan
77360;BME280;66426;51.454;7.266;2023-07-29T05:29:45;99249.94;;;17.73;nan
77360;BME280;66426;51.454;7.266;2023-07-29T05:30:46;99257.09;;;17.74;nan
77360;BME280;66426;51.454;7.266;2023-07-29T05:31:46;99243.22;;;17.77;nan
77360;BME280;66426;51.454;7.266;2023-07-29T05:32:47;99240.06;;;17.82;nan
77360;BME280;66426;51.454;7.266;2023-07-29T05:33:48;99232.03;;;17.90;nan
77360;BME280;66426;51.454;7.266;2023-07-29T05:34:49;99235.31;;;17.84;nan
77360;BME280;66426;51.454;7.266;2023-07-29T05:35:50;99240.34;;;17.88;nan